Time;durP1;ratioP1;P1;durP2;ratioP2;P2;SDS_P1;SDS_P2;PMS_P1;PMS_P2;Temp;Humidity;BMP_temperature;BMP_pressure;BME280_temperature;BME280_humidity;BME280_pressure;Samples;Min_cycle;Max_cycle;Signal;HPM_P1;HPM_P2
2022/01/30 00:00:09;;;;;;;8.80;3.75;;;;;;;-1.37;49.06;100957.56;1805028;78;25615;-58
2022/01/30 00:02:38;;;;;;;5.58;3.40;;;;;;;-1.31;48.73;100956.02;1792387;79;25778;-59
2022/01/30 00:05:07;;;;;;;8.48;3.58;;;;;;;-1.28;48.30;100946.20;1792164;80;25778;-58
2022/01/30 00:07:34;;;;;;;9.20;4.22;;;;;;;-1.21;48.09;100946.00;1799924;78;25785;-58
2022/01/30 00:10:04;;;;;;;6.37;3.45;;;;;;;-1.17;47.64;100943.19;1822852;78;27496;-58
2022/01/30 00:13:06;;;;;;;6.78;4.10;;;;;;;-1.15;47.83;100935.20;1822842;78;25444;-59
2022/01/30 00:15:07;;;;;;;6.05;3.50;;;;;;;-1.12;47.33;100927.17;1808028;78;25694;-57
2022/01/30 00:17:41;;;;;;;12.58;4.87;;;;;;;-1.11;47.15;100916.55;1823321;78;25739;-58
2022/01/30 00:20:11;;;;;;;7.35;3.08;;;;;;;-1.06;46.25;100912.41;1805335;78;25797;-59
2022/01/30 00:22:46;;;;;;;9.58;3.72;;;;;;;-1.05;46.50;100896.98;1791595;80;27451;-58
2022/01/30 00:25:15;;;;;;;6.90;3.02;;;;;;;-1.01;46.17;100894.60;1811487;78;25726;-58
2022/01/30 00:27:48;;;;;;;6.67;3.62;;;;;;;-1.01;47.07;100893.28;1814585;77;25864;-58
2022/01/30 00:30:09;;;;;;;5.42;3.20;;;;;;;-0.98;47.42;100883.94;1788243;80;25813;-57
2022/01/30 00:32:36;;;;;;;6.70;3.55;;;;;;;-0.96;47.78;100876.82;1790731;80;26079;-58
2022/01/30 00:35:04;;;;;;;9.18;3.95;;;;;;;-1.08;47.81;100846.92;1790314;80;27480;-57
2022/01/30 00:37:31;;;;;;;7.30;3.30;;;;;;;-0.92;47.53;100866.99;1791484;78;25703;-58
2022/01/30 00:39:58;;;;;;;11.28;3.37;;;;;;;-0.86;48.03;100869.86;1792137;80;25660;-58
2022/01/30 00:42:25;;;;;;;9.83;3.70;;;;;;;-0.81;48.09;100854.67;1815645;78;25844;-59
2022/01/30 00:44:52;;;;;;;6.78;3.20;;;;;;;-0.79;47.16;100849.72;1820600;78;25781;-57
2022/01/30 00:47:18;;;;;;;7.37;3.30;;;;;;;-0.78;46.33;100843.99;1786656;79;27546;-58
2022/01/30 00:49:45;;;;;;;12.10;3.15;;;;;;;-0.78;46.00;100829.47;1817834;78;25850;-58
2022/01/30 00:52:16;;;;;;;6.55;3.15;;;;;;;-0.79;46.06;100829.06;1786633;80;25704;-58
2022/01/30 00:54:41;;;;;;;7.37;3.92;;;;;;;-0.79;45.81;100821.98;1818674;78;25815;-58
2022/01/30 00:57:08;;;;;;;6.80;3.47;;;;;;;-0.78;45.48;100813.62;1786841;79;25759;-58
2022/01/30 00:59:35;;;;;;;6.37;3.05;;;;;;;-0.75;45.05;100798.09;1818904;78;27481;-58
2022/01/30 01:02:02;;;;;;;8.80;3.25;;;;;;;-0.73;45.24;100792.30;1787242;78;25776;-58
2022/01/30 01:04:29;;;;;;;8.35;3.52;;;;;;;-0.71;45.02;100779.86;1818809;78;25753;-58
2022/01/30 01:06:56;;;;;;;6.10;3.17;;;;;;;-0.68;44.70;100767.85;1786961;79;25839;-57
2022/01/30 01:09:30;;;;;;;5.75;2.75;;;;;;;-0.67;44.96;100760.33;1818876;78;27291;-58
2022/01/30 01:25:42;;;;;;;5.17;2.80;;;;;;;-0.52;45.06;100737.69;1800634;78;27481;-58
2022/01/30 01:28:09;;;;;;;7.30;2.90;;;;;;;-0.46;45.26;100732.13;1783112;80;25707;-59
2022/01/30 01:30:36;;;;;;;5.37;2.08;;;;;;;-0.40;45.06;100734.97;1783352;80;25797;-58
2022/01/30 01:33:04;;;;;;;5.05;2.80;;;;;;;-0.35;44.47;100740.90;1783098;80;26460;-58
2022/01/30 01:35:31;;;;;;;4.90;2.58;;;;;;;-0.30;44.45;100727.48;1811813;78;25689;-59
2022/01/30 01:37:58;;;;;;;5.53;2.70;;;;;;;-0.27;44.16;100726.03;1786880;79;28362;-58
2022/01/30 01:40:25;;;;;;;7.15;2.60;;;;;;;-0.21;43.87;100726.63;1816350;78;25742;-58
2022/01/30 01:42:54;;;;;;;7.83;3.25;;;;;;;-0.17;44.14;100720.73;1786837;80;25777;-58
2022/01/30 01:45:23;;;;;;;8.93;3.50;;;;;;;-0.16;44.65;100715.85;1797392;78;25795;-59
2022/01/30 01:47:50;;;;;;;3.33;2.37;;;;;;;-0.12;44.68;100702.88;1788857;80;25758;-58
2022/01/30 01:50:37;;;;;;;4.78;3.10;;;;;;;-0.07;44.54;100706.62;1789085;80;27484;-58
2022/01/30 01:52:47;;;;;;;9.40;2.87;;;;;;;-0.03;44.54;100704.25;1784911;80;25504;-58
2022/01/30 01:55:14;;;;;;;3.80;2.65;;;;;;;-0.02;43.91;100692.27;1788879;80;25623;-58
2022/01/30 01:57:43;;;;;;;6.20;2.25;;;;;;;0.04;44.05;100688.97;1793990;78;25982;-59
2022/01/30 02:00:16;;;;;;;4.40;3.00;;;;;;;0.05;44.20;100680.95;1798072;77;25751;-58
2022/01/30 02:02:42;;;;;;;8.33;2.67;;;;;;;0.05;43.75;100674.78;1825268;78;27474;-59
2022/01/30 02:05:11;;;;;;;8.03;2.58;;;;;;;0.05;44.05;100676.98;1792483;80;25959;-58
2022/01/30 02:13:34;;;;;;;6.30;2.75;;;;;;;0.19;44.04;100658.27;1788914;80;25782;-59
2022/01/30 02:23:57;;;;;;;13.60;5.70;;;;;;;0.19;44.49;100653.86;1781165;80;27649;-59
2022/01/30 02:24:05;;;;;;;7.12;3.17;;;;;;;0.28;45.45;100646.81;1793250;78;25774;-59
2022/01/30 02:26:27;;;;;;;6.22;2.75;;;;;;;0.30;45.27;100642.30;1783175;80;25711;-59
2022/01/30 02:28:55;;;;;;;5.97;2.65;;;;;;;0.34;44.86;100640.81;1755272;80;28407;-59
2022/01/30 02:31:23;;;;;;;5.95;3.05;;;;;;;0.36;44.50;100629.70;1785000;78;26257;-58
2022/01/30 02:33:51;;;;;;;5.83;3.70;;;;;;;0.38;44.27;100622.55;1816948;79;25729;-58
2022/01/30 02:36:18;;;;;;;5.12;2.70;;;;;;;0.37;44.48;100608.45;1816909;79;25805;-59
2022/01/30 02:38:45;;;;;;;3.58;2.08;;;;;;;0.41;44.01;100605.18;1816972;79;25771;-59
2022/01/30 02:41:12;;;;;;;4.75;2.37;;;;;;;0.41;43.97;100608.70;1809206;78;27497;-58
2022/01/30 02:43:53;;;;;;;9.65;2.58;;;;;;;0.42;44.20;100605.58;1786217;79;25837;-58
2022/01/30 02:46:23;;;;;;;5.00;2.22;;;;;;;0.45;44.16;100606.75;1778249;80;25778;-59
2022/01/30 02:48:57;;;;;;;6.28;2.75;;;;;;;0.48;43.74;100608.39;1806346;78;25896;-59
2022/01/30 02:51:15;;;;;;;5.78;2.47;;;;;;;0.50;43.74;100606.05;1808523;79;25828;-58
2022/01/30 02:53:46;;;;;;;8.85;3.25;;;;;;;0.52;43.83;100600.70;1813703;79;27509;-58
2022/01/30 02:56:11;;;;;;;5.00;2.83;;;;;;;0.51;44.07;100595.02;1807711;79;25899;-59
2022/01/30 02:58:37;;;;;;;5.30;3.05;;;;;;;0.47;43.92;100590.34;1780588;79;25754;-58
2022/01/30 03:01:04;;;;;;;4.92;2.05;;;;;;;0.49;43.96;100587.16;1794437;79;25762;-58
2022/01/30 03:03:31;;;;;;;7.12;2.67;;;;;;;0.51;43.99;100572.03;1814005;79;25689;-58
2022/01/30 03:05:58;;;;;;;7.50;3.98;;;;;;;0.50;44.37;100570.31;1813355;79;27458;-58
2022/01/30 03:08:25;;;;;;;4.33;2.35;;;;;;;0.50;44.27;100567.67;1812768;79;26127;-58
2022/01/30 03:10:52;;;;;;;5.70;2.67;;;;;;;0.53;44.08;100570.17;1813796;79;25685;-58
2022/01/30 03:13:19;;;;;;;5.25;2.70;;;;;;;0.50;44.39;100562.86;1813870;79;25832;-58
2022/01/30 03:15:47;;;;;;;5.08;2.30;;;;;;;0.51;44.34;100572.03;1814033;78;25639;-59
2022/01/30 03:18:14;;;;;;;6.80;2.92;;;;;;;0.50;44.54;100572.96;1813721;79;27535;-58
2022/01/30 03:20:42;;;;;;;4.87;2.60;;;;;;;0.49;44.95;100562.02;1810010;79;25737;-58
2022/01/30 03:23:09;;;;;;;4.55;2.42;;;;;;;0.45;46.13;100565.25;1807382;78;25730;-60
2022/01/30 03:25:36;;;;;;;5.08;3.15;;;;;;;0.46;48.46;100557.70;1819061;78;26483;-58
2022/01/30 03:28:08;;;;;;;7.53;2.47;;;;;;;0.43;50.95;100553.03;1811232;78;26049;-58
2022/01/30 03:30:38;;;;;;;8.90;3.12;;;;;;;0.34;53.29;100542.91;1818762;78;27491;-58
2022/01/30 03:33:06;;;;;;;9.05;2.80;;;;;;;0.19;53.94;100520.70;1817933;78;25717;-58
2022/01/30 03:35:35;;;;;;;8.25;2.45;;;;;;;0.08;55.35;100514.18;1818851;78;25731;-57
2022/01/30 03:38:02;;;;;;;5.92;2.30;;;;;;;0.02;55.16;100508.33;1819224;78;25672;-60
2022/01/30 03:40:30;;;;;;;5.20;2.27;;;;;;;0.01;56.13;100498.19;1814845;78;25812;-58
2022/01/30 03:42:58;;;;;;;5.47;2.40;;;;;;;-0.03;57.52;100493.52;1806488;78;28232;-60
2022/01/30 03:45:25;;;;;;;6.97;2.83;;;;;;;-0.08;58.51;100475.72;1805990;78;25453;-59
2022/01/30 03:47:55;;;;;;;4.95;2.25;;;;;;;-0.08;61.67;100469.11;1805797;79;25730;-60
2022/01/30 03:50:24;;;;;;;5.55;2.83;;;;;;;-0.20;61.87;100457.35;1806743;78;25806;-59
2022/01/30 03:52:52;;;;;;;5.87;2.50;;;;;;;-0.27;62.94;100458.55;1808606;79;25784;-59
2022/01/30 03:55:19;;;;;;;5.33;2.67;;;;;;;-0.35;64.52;100453.66;1795679;79;27476;-59
2022/01/30 03:57:45;;;;;;;7.15;2.45;;;;;;;-0.41;66.17;100452.64;1791562;80;25844;-60
2022/01/30 04:00:14;;;;;;;5.03;2.50;;;;;;;-0.49;65.64;100446.84;1791579;80;26109;-59
2022/01/30 04:02:47;;;;;;;3.70;2.58;;;;;;;-0.54;65.77;100447.53;1791922;80;25667;-59
2022/01/30 04:05:16;;;;;;;6.72;3.45;;;;;;;-0.56;66.23;100444.10;1784437;79;25944;-58
2022/01/30 04:07:49;;;;;;;5.85;2.58;;;;;;;-0.55;67.38;100445.82;1759226;81;27440;-57
2022/01/30 04:10:18;;;;;;;4.05;2.47;;;;;;;-0.58;67.54;100442.86;1758528;81;25836;-57
2022/01/30 04:12:48;;;;;;;5.22;3.25;;;;;;;-0.57;67.82;100435.78;1756486;81;25797;-57
2022/01/30 04:15:30;;;;;;;5.70;2.95;;;;;;;-0.57;68.02;100426.09;1758686;81;25799;-57
2022/01/30 04:18:03;;;;;;;5.60;2.58;;;;;;;-0.54;68.66;100419.31;1785997;80;25774;-58
2022/01/30 04:20:45;;;;;;;5.40;2.65;;;;;;;-0.51;69.46;100409.09;1744928;80;27485;-57
2022/01/30 04:23:12;;;;;;;5.42;2.45;;;;;;;-0.50;69.83;100409.48;1790166;80;25773;-58
2022/01/30 04:25:57;;;;;;;9.43;2.30;;;;;;;-0.49;70.45;100408.52;1793406;80;25525;-58
2022/01/30 04:28:30;;;;;;;3.40;1.98;;;;;;;-0.50;71.45;100401.55;1765030;80;25814;-58
2022/01/30 04:31:01;;;;;;;5.47;2.60;;;;;;;-0.52;71.72;100381.78;1752094;81;25727;-58
2022/01/30 04:33:42;;;;;;;6.35;2.52;;;;;;;-0.51;72.40;100374.25;1730370;81;27402;-58
2022/01/30 04:36:18;;;;;;;4.78;2.40;;;;;;;-0.52;72.92;100361.97;1750551;82;26019;-58
2022/01/30 04:38:59;;;;;;;4.37;1.75;;;;;;;-0.50;73.54;100350.02;1747308;80;25751;-59
2022/01/30 04:53:38;;;;;;;5.10;2.90;;;;;;;-0.54;75.35;100306.17;1845492;77;25665;-58
2022/01/30 04:56:19;;;;;;;7.65;2.00;;;;;;;-0.51;75.58;100303.39;1844256;77;25959;-58
2022/01/30 04:58:50;;;;;;;3.02;1.92;;;;;;;-0.48;75.89;100294.84;1841727;77;25867;-58
2022/01/30 05:04:02;;;;;;;5.72;2.22;;;;;;;-0.43;75.45;100305.17;1855541;77;25882;-58
2022/01/30 05:06:54;;;;;;;7.47;2.83;;;;;;;-0.39;74.64;100301.43;1856642;77;25772;-59
2022/01/30 05:09:18;;;;;;;4.55;2.10;;;;;;;-0.33;73.97;100294.53;1851535;77;26459;-59
2022/01/30 05:11:53;;;;;;;4.03;2.80;;;;;;;-0.25;73.93;100290.16;1854245;77;25447;-58
2022/01/30 05:14:28;;;;;;;2.40;1.82;;;;;;;-0.19;74.23;100287.22;1852390;77;27515;-58
2022/01/30 05:17:13;;;;;;;3.08;1.90;;;;;;;-0.16;73.61;100290.16;1856440;77;25534;-59
2022/01/30 05:20:02;;;;;;;3.80;1.80;;;;;;;-0.13;74.07;100281.21;1816817;78;25756;-59
2022/01/30 05:22:33;;;;;;;1.52;1.32;;;;;;;-0.11;73.79;100279.34;1813314;78;25752;-58
2022/01/30 05:25:06;;;;;;;4.28;1.52;;;;;;;-0.10;73.32;100279.26;1810546;77;25826;-59
2022/01/30 05:27:36;;;;;;;4.05;2.00;;;;;;;-0.08;72.93;100280.04;1855407;77;27578;-58
2022/01/30 05:30:13;;;;;;;5.28;3.12;;;;;;;-0.07;73.26;100271.63;1850709;77;25969;-58
2022/01/30 05:32:42;;;;;;;4.20;1.57;;;;;;;-0.09;73.33;100274.36;1854587;77;25820;-57
2022/01/30 05:35:13;;;;;;;2.22;1.57;;;;;;;-0.05;72.71;100279.89;1846191;77;26527;-58
2022/01/30 05:37:59;;;;;;;4.12;2.27;;;;;;;-0.02;72.94;100277.55;1856530;77;25708;-58
2022/01/30 05:40:46;;;;;;;4.37;1.90;;;;;;;-0.01;72.68;100276.13;1856782;77;27457;-58
2022/01/30 05:43:30;;;;;;;2.95;2.17;;;;;;;0.00;72.47;100274.36;1829898;77;25738;-58
2022/01/30 05:46:15;;;;;;;2.80;1.75;;;;;;;0.03;72.36;100270.70;1850434;77;25773;-58
2022/01/30 05:48:57;;;;;;;2.75;1.98;;;;;;;0.06;72.02;100267.41;1812706;79;26298;-58
2022/01/30 05:51:26;;;;;;;3.15;2.00;;;;;;;0.10;71.95;100264.14;1816032;79;26511;-58
2022/01/30 05:53:55;;;;;;;3.05;1.90;;;;;;;0.12;71.66;100267.08;1817015;79;27376;-58
2022/01/30 05:56:23;;;;;;;3.72;2.08;;;;;;;0.14;71.56;100272.28;1818562;77;25948;-58
2022/01/30 05:58:51;;;;;;;4.17;2.12;;;;;;;0.20;71.28;100270.65;1819730;78;25693;-58
2022/01/30 06:01:20;;;;;;;3.52;2.15;;;;;;;0.26;71.54;100259.73;1819194;78;25985;-58
2022/01/30 06:03:47;;;;;;;2.65;1.90;;;;;;;0.28;71.46;100251.70;1819868;77;25699;-58
2022/01/30 06:06:14;;;;;;;4.90;2.42;;;;;;;0.29;71.33;100267.97;1832990;77;27483;-58
2022/01/30 06:09:00;;;;;;;3.70;2.22;;;;;;;0.29;70.92;100258.25;1842929;77;25439;-58
2022/01/30 06:11:15;;;;;;;5.78;2.20;;;;;;;0.32;70.76;100262.52;1841165;77;25626;-59
2022/01/30 06:13:42;;;;;;;5.60;2.52;;;;;;;0.36;70.95;100264.05;1839126;77;25778;-58
2022/01/30 06:16:10;;;;;;;3.00;2.08;;;;;;;0.36;70.55;100253.94;1820025;78;25796;-59
2022/01/30 06:18:37;;;;;;;4.72;3.12;;;;;;;0.40;70.40;100255.02;1819711;78;27462;-59
2022/01/30 06:21:12;;;;;;;4.00;2.67;;;;;;;0.42;70.35;100250.50;1815450;78;25694;-59
2022/01/30 06:23:54;;;;;;;4.47;2.60;;;;;;;0.45;70.18;100255.60;1825529;77;25729;-58
2022/01/30 06:26:26;;;;;;;5.10;2.83;;;;;;;0.49;70.25;100256.31;1828289;77;25781;-59
2022/01/30 06:28:53;;;;;;;6.87;2.67;;;;;;;0.55;70.41;100244.51;1828975;77;25743;-59
2022/01/30 06:31:24;;;;;;;5.47;2.80;;;;;;;0.54;70.24;100241.02;1777682;79;27468;-59
2022/01/30 06:34:09;;;;;;;7.05;2.77;;;;;;;0.57;70.22;100240.86;1816816;77;25833;-59
2022/01/30 06:36:56;;;;;;;7.40;2.52;;;;;;;0.57;70.05;100239.55;1829659;77;25669;-59
2022/01/30 06:39:30;;;;;;;8.20;3.37;;;;;;;0.61;69.95;100234.92;1826709;77;25759;-59
2022/01/30 06:42:07;;;;;;;5.70;3.33;;;;;;;0.65;70.25;100207.81;1818586;77;25943;-58
2022/01/30 06:44:45;;;;;;;7.37;4.03;;;;;;;0.67;70.12;100205.45;1747221;80;27386;-58
2022/01/30 06:47:31;;;;;;;7.67;3.50;;;;;;;0.67;69.76;100205.45;1835125;77;25743;-58
2022/01/30 06:50:06;;;;;;;5.30;3.08;;;;;;;0.70;69.92;100200.45;1841249;77;25712;-58
2022/01/30 06:52:37;;;;;;;6.15;2.92;;;;;;;0.75;69.73;100199.73;1808083;77;26559;-59
2022/01/30 06:55:24;;;;;;;6.17;2.62;;;;;;;0.80;69.59;100200.31;1844828;77;25838;-58
2022/01/30 06:58:03;;;;;;;5.55;3.15;;;;;;;0.86;69.51;100209.22;1849093;77;28152;-59
2022/01/30 07:00:48;;;;;;;8.00;3.05;;;;;;;0.92;69.20;100197.42;1846064;77;25719;-59
2022/01/30 07:03:17;;;;;;;8.65;3.37;;;;;;;0.99;69.08;100182.04;1860033;77;25708;-59
2022/01/30 07:06:02;;;;;;;6.22;3.00;;;;;;;1.01;68.90;100182.81;1859861;76;25937;-60
2022/01/30 07:08:30;;;;;;;7.10;3.72;;;;;;;1.06;68.78;100176.77;1858389;77;25747;-60
2022/01/30 07:10:57;;;;;;;7.53;3.35;;;;;;;1.11;68.58;100164.57;1859254;77;27442;-60
2022/01/30 07:13:24;;;;;;;9.45;4.15;;;;;;;1.13;68.48;100160.04;1859904;77;25482;-60
2022/01/30 07:15:51;;;;;;;6.70;3.30;;;;;;;1.17;68.30;100154.47;1850687;77;25748;-60
2022/01/30 07:18:18;;;;;;;6.83;3.20;;;;;;;1.20;68.33;100154.75;1844190;77;26490;-60
2022/01/30 07:20:45;;;;;;;6.45;3.47;;;;;;;1.24;68.06;100135.93;1851958;76;25661;-60
2022/01/30 07:23:11;;;;;;;5.70;3.85;;;;;;;1.29;67.83;100139.63;1839516;77;27461;-60
2022/01/30 07:25:39;;;;;;;7.45;2.85;;;;;;;1.32;67.83;100143.89;1843029;76;25732;-60
2022/01/30 07:28:06;;;;;;;8.98;3.35;;;;;;;1.38;67.62;100145.70;1854281;76;25773;-60
2022/01/30 07:30:34;;;;;;;4.78;2.77;;;;;;;1.45;67.27;100146.19;1849010;77;25851;-59
2022/01/30 07:33:02;;;;;;;5.70;3.58;;;;;;;1.48;66.99;100140.69;1845567;77;25706;-60
2022/01/30 07:35:32;;;;;;;6.12;2.98;;;;;;;1.50;67.03;100124.22;1845658;77;27454;-59
2022/01/30 07:38:00;;;;;;;5.47;3.15;;;;;;;1.60;66.88;100127.63;1840942;77;25996;-59
2022/01/30 07:40:27;;;;;;;5.90;3.67;;;;;;;1.66;66.45;100130.77;1829286;77;25770;-59
2022/01/30 07:42:54;;;;;;;9.20;4.05;;;;;;;1.70;66.15;100109.72;1853735;77;25753;-59
2022/01/30 07:45:21;;;;;;;8.93;3.58;;;;;;;1.76;65.69;100104.52;1839087;77;25669;-59
2022/01/30 07:47:47;;;;;;;5.50;3.70;;;;;;;1.85;65.55;100108.41;1811566;78;27476;-59
2022/01/30 07:50:15;;;;;;;6.80;3.80;;;;;;;1.90;65.44;100108.95;1813724;77;25652;-59
2022/01/30 07:52:41;;;;;;;6.72;3.85;;;;;;;1.95;65.05;100107.34;1816166;79;25663;-59
2022/01/30 07:55:10;;;;;;;8.68;4.30;;;;;;;1.94;64.94;100110.48;1816170;79;25790;-60
2022/01/30 07:57:36;;;;;;;7.80;4.72;;;;;;;1.95;64.62;100105.55;1805967;77;25892;-57
2022/01/30 08:00:07;;;;;;;6.75;4.47;;;;;;;1.94;64.68;100113.13;1852163;77;27367;-59
2022/01/30 08:02:35;;;;;;;7.28;3.62;;;;;;;1.91;64.63;100109.34;1849792;77;25905;-59
2022/01/30 08:05:03;;;;;;;6.78;3.52;;;;;;;1.85;64.43;100111.05;1856715;77;25630;-60
2022/01/30 08:07:31;;;;;;;5.78;3.45;;;;;;;1.82;64.09;100106.80;1856446;77;25802;-60
2022/01/30 08:09:58;;;;;;;6.83;3.75;;;;;;;1.83;64.23;100111.63;1856402;77;25778;-59
2022/01/30 08:12:25;;;;;;;6.47;4.05;;;;;;;1.94;64.36;100101.66;1849860;77;27452;-60
2022/01/30 08:14:51;;;;;;;10.63;3.70;;;;;;;2.10;64.15;100102.86;1844287;77;25776;-60
2022/01/30 08:17:22;;;;;;;7.50;3.77;;;;;;;2.28;63.29;100098.19;1856343;77;25724;-60
2022/01/30 08:19:48;;;;;;;8.78;4.20;;;;;;;2.43;63.17;100102.48;1848145;77;26537;-58
2022/01/30 08:22:15;;;;;;;10.65;4.60;;;;;;;2.70;62.54;100106.94;1843439;77;25746;-60
2022/01/30 08:24:41;;;;;;;7.97;5.17;;;;;;;3.06;61.64;100097.44;1846742;77;28081;-60
2022/01/30 08:27:08;;;;;;;10.15;5.12;;;;;;;3.36;60.17;100088.78;1844437;77;25957;-59
2022/01/30 08:29:35;;;;;;;7.75;4.72;;;;;;;3.53;60.38;100083.13;1850348;77;25801;-60
2022/01/30 08:32:05;;;;;;;6.22;4.22;;;;;;;3.74;59.67;100090.56;1850838;77;25832;-60
2022/01/30 08:34:32;;;;;;;12.18;7.28;;;;;;;3.83;57.52;100101.88;1850887;77;25695;-57
2022/01/30 08:36:58;;;;;;;13.30;6.20;;;;;;;3.74;57.99;100104.70;1847420;77;27464;-60
2022/01/30 08:39:25;;;;;;;13.13;7.08;;;;;;;3.75;57.42;100105.58;1848322;77;26057;-60
2022/01/30 08:41:52;;;;;;;7.47;4.60;;;;;;;3.74;57.97;100107.86;1856730;77;25721;-60
2022/01/30 08:44:19;;;;;;;6.87;4.03;;;;;;;3.77;57.50;100096.98;1856782;77;25748;-60
2022/01/30 08:46:45;;;;;;;7.28;4.12;;;;;;;3.82;57.33;100101.51;1856342;76;25653;-59
2022/01/30 08:49:14;;;;;;;8.63;4.92;;;;;;;3.87;56.54;100098.03;1849573;77;27527;-60
2022/01/30 08:51:41;;;;;;;7.97;4.03;;;;;;;3.89;56.08;100090.80;1838944;77;25750;-57
2022/01/30 08:54:07;;;;;;;6.83;3.80;;;;;;;3.90;56.65;100084.98;1836411;77;25757;-58
2022/01/30 08:56:34;;;;;;;6.75;3.72;;;;;;;3.93;55.51;100091.42;1828692;77;26441;-58
2022/01/30 08:59:01;;;;;;;7.92;4.10;;;;;;;3.96;56.28;100097.00;1835073;77;25689;-58
2022/01/30 09:01:32;;;;;;;12.20;3.98;;;;;;;4.13;56.30;100079.33;1843112;77;27486;-58
2022/01/30 09:03:56;;;;;;;5.95;3.52;;;;;;;4.43;56.57;100068.72;1853921;77;25833;-58
2022/01/30 09:06:23;;;;;;;7.35;4.05;;;;;;;4.85;55.50;100064.28;1852437;77;25776;-59
2022/01/30 09:08:50;;;;;;;5.20;3.20;;;;;;;5.34;55.69;100062.31;1834891;77;25824;-58
2022/01/30 09:11:17;;;;;;;7.08;4.12;;;;;;;5.92;53.55;100060.84;1844411;77;25674;-59
2022/01/30 09:13:44;;;;;;;6.20;3.58;;;;;;;6.58;53.38;100063.11;1842523;77;27433;-59
2022/01/30 09:16:11;;;;;;;5.95;3.62;;;;;;;7.32;52.80;100049.31;1830269;77;27276;-59
2022/01/30 09:18:39;;;;;;;9.45;3.20;;;;;;;8.14;49.94;100042.14;1843578;77;25620;-59
2022/01/30 09:21:06;;;;;;;9.43;3.40;;;;;;;8.75;49.89;100037.55;1848585;77;26363;-59
2022/01/30 09:23:32;;;;;;;6.97;2.98;;;;;;;9.11;47.89;100035.56;1846563;76;25653;-59
2022/01/30 09:25:59;;;;;;;7.05;3.52;;;;;;;9.04;46.12;100033.47;1853283;77;27446;-59
2022/01/30 09:28:26;;;;;;;5.62;3.30;;;;;;;8.85;45.54;100023.63;1854365;77;27261;-58
2022/01/30 09:30:54;;;;;;;12.30;3.87;;;;;;;8.99;46.00;100029.52;1850388;77;25704;-59
2022/01/30 09:33:20;;;;;;;7.15;3.33;;;;;;;9.25;44.55;100023.05;1843029;77;25799;-59
2022/01/30 09:35:47;;;;;;;4.90;2.87;;;;;;;9.18;44.80;100017.41;1838149;77;25673;-59
2022/01/30 09:38:14;;;;;;;5.17;2.75;;;;;;;8.83;43.83;100016.73;1845509;77;27444;-60
2022/01/30 09:40:41;;;;;;;4.90;3.08;;;;;;;8.45;42.64;100027.28;1844117;77;25836;-58
2022/01/30 09:43:09;;;;;;;5.37;3.15;;;;;;;8.15;44.42;100021.91;1842870;77;25750;-58
2022/01/30 09:45:36;;;;;;;4.58;2.20;;;;;;;7.91;44.25;100020.11;1850836;77;26410;-59
2022/01/30 09:48:04;;;;;;;3.12;2.37;;;;;;;7.65;44.05;100020.09;1852448;77;25809;-59
2022/01/30 09:50:32;;;;;;;4.60;2.17;;;;;;;7.51;45.12;100026.66;1858356;77;27414;-59
2022/01/30 09:52:59;;;;;;;10.72;2.10;;;;;;;7.41;44.18;100004.88;1862824;77;25900;-59
2022/01/30 09:55:26;;;;;;;5.58;3.02;;;;;;;7.33;44.39;99993.48;1843322;77;25665;-58
2022/01/30 09:57:53;;;;;;;1.42;1.20;;;;;;;7.23;45.34;99992.13;1843235;77;25755;-58
2022/01/30 10:00:20;;;;;;;2.83;1.57;;;;;;;7.20;44.92;99997.25;1841391;77;25767;-59
2022/01/30 10:02:47;;;;;;;1.75;1.30;;;;;;;7.15;42.92;100006.66;1842080;77;27454;-58
2022/01/30 10:05:16;;;;;;;1.95;1.37;;;;;;;6.96;43.34;99992.66;1862378;77;25825;-59
2022/01/30 10:07:49;;;;;;;4.70;1.77;;;;;;;6.87;43.21;99992.98;1862585;77;25731;-59
2022/01/30 10:10:18;;;;;;;3.47;1.40;;;;;;;6.81;43.13;99990.84;1861865;77;25774;-59
2022/01/30 10:13:09;;;;;;;2.50;1.15;;;;;;;6.61;44.06;99941.73;1863071;77;25804;-59
2022/01/30 10:15:56;;;;;;;3.95;1.20;;;;;;;6.49;43.83;99960.53;1862644;77;28296;-59
2022/01/30 10:18:33;;;;;;;2.87;1.82;;;;;;;6.45;44.45;99958.25;1854726;77;25920;-59
2022/01/30 10:20:58;;;;;;;2.60;1.52;;;;;;;6.38;45.06;99948.56;1846900;77;25449;-59
2022/01/30 10:23:36;;;;;;;3.60;1.80;;;;;;;6.32;44.51;99957.94;1853026;77;26590;-59
2022/01/30 10:26:09;;;;;;;5.55;1.75;;;;;;;6.33;44.21;99966.31;1851620;77;25704;-59
2022/01/30 10:28:33;;;;;;;2.08;1.62;;;;;;;6.33;44.24;99956.96;1851097;77;28100;-59
2022/01/30 10:31:07;;;;;;;3.67;1.87;;;;;;;6.33;45.20;99967.64;1851491;77;25693;-59
2022/01/30 10:33:47;;;;;;;3.90;2.02;;;;;;;6.44;44.93;99964.56;1856892;77;25532;-59
2022/01/30 10:36:32;;;;;;;3.87;1.75;;;;;;;6.48;43.81;99973.53;1862569;77;27113;-59
2022/01/30 10:39:13;;;;;;;3.85;1.90;;;;;;;6.48;44.08;99971.33;1862735;77;25740;-59
2022/01/30 10:41:52;;;;;;;3.75;1.85;;;;;;;6.53;44.79;99973.14;1862154;77;28179;-59
2022/01/30 10:44:12;;;;;;;3.98;1.80;;;;;;;6.62;44.34;99970.16;1860083;77;25717;-58
2022/01/30 10:46:44;;;;;;;8.23;1.80;;;;;;;6.63;44.62;99975.88;1862376;77;25788;-59
2022/01/30 10:49:20;;;;;;;9.85;2.30;;;;;;;6.69;44.51;99969.52;1862538;77;25889;-59
2022/01/30 10:52:01;;;;;;;5.05;1.90;;;;;;;6.74;44.38;99966.45;1862514;77;25760;-59
2022/01/30 10:54:32;;;;;;;6.17;1.90;;;;;;;6.79;44.53;99968.73;1862162;77;27441;-60
2022/01/30 10:57:12;;;;;;;2.98;1.82;;;;;;;6.91;44.45;99969.50;1862287;77;25644;-59
2022/01/30 10:59:52;;;;;;;11.08;1.55;;;;;;;7.63;44.75;99963.16;1861983;77;25652;-59
2022/01/30 11:02:16;;;;;;;3.58;1.90;;;;;;;9.03;43.00;99939.72;1861347;77;26752;-59
2022/01/30 11:04:47;;;;;;;4.72;1.62;;;;;;;10.02;40.43;99938.19;1862927;77;25726;-59
2022/01/30 11:07:21;;;;;;;6.85;2.02;;;;;;;11.21;38.73;99930.16;1862377;77;27448;-59
2022/01/30 11:10:08;;;;;;;1.77;1.22;;;;;;;11.95;39.22;99925.49;1862374;77;25709;-60
2022/01/30 11:13:24;;;;;;;9.33;1.60;;;;;;;11.75;36.42;99925.78;1861119;77;25749;-59
2022/01/30 11:17:45;;;;;;;7.72;2.00;;;;;;;13.85;35.37;99911.61;1791051;79;25914;-59
2022/01/30 11:20:14;;;;;;;3.15;1.80;;;;;;;14.85;35.50;99899.45;1806611;77;45765;-59
2022/01/30 11:22:46;;;;;;;4.05;1.80;;;;;;;15.80;34.16;99892.86;1824736;78;25790;-59
2022/01/30 11:25:14;;;;;;;5.33;1.77;;;;;;;16.34;28.98;99889.33;1849540;77;25835;-60
2022/01/30 11:27:43;;;;;;;8.55;2.08;;;;;;;15.61;30.38;99897.01;1862472;77;25519;-59
2022/01/30 11:30:11;;;;;;;9.68;1.95;;;;;;;15.19;29.84;99895.37;1853201;77;25856;-60
2022/01/30 11:32:39;;;;;;;4.92;1.90;;;;;;;14.73;30.33;99896.90;1862765;77;28090;-60
2022/01/30 11:35:08;;;;;;;11.33;2.00;;;;;;;14.74;32.50;99887.76;1862597;77;25767;-60
2022/01/30 11:37:37;;;;;;;8.88;1.55;;;;;;;15.36;32.01;99897.34;1840720;77;25758;-59
2022/01/30 11:40:17;;;;;;;1.47;1.15;;;;;;;15.37;29.13;99886.83;1822273;78;25755;-60
2022/01/30 11:42:49;;;;;;;5.33;1.05;;;;;;;15.58;28.11;99872.48;1858397;77;25792;-60
2022/01/30 11:45:27;;;;;;;2.22;1.12;;;;;;;15.98;27.10;99878.05;1863085;77;27407;-59
2022/01/30 11:48:03;;;;;;;1.77;1.02;;;;;;;16.14;26.70;99853.36;1851525;77;25812;-59
2022/01/30 11:50:33;;;;;;;2.30;0.95;;;;;;;16.21;27.71;99846.64;1831399;77;25702;-59
2022/01/30 11:53:14;;;;;;;1.90;1.05;;;;;;;16.63;27.38;99829.10;1827870;78;25929;-58
2022/01/30 11:55:53;;;;;;;8.13;1.20;;;;;;;16.63;26.15;99839.96;1804154;79;25690;-59
2022/01/30 11:58:41;;;;;;;1.67;1.10;;;;;;;16.02;26.30;99842.20;1778693;78;27329;-59
2022/01/30 12:01:37;;;;;;;2.80;1.10;;;;;;;15.72;26.83;99830.63;1810963;79;25763;-59
2022/01/30 12:04:14;;;;;;;2.77;1.37;;;;;;;15.89;26.25;99830.72;1782030;80;25761;-59
2022/01/30 12:06:47;;;;;;;2.52;1.30;;;;;;;15.65;26.48;99831.90;1781988;80;25790;-59
2022/01/30 12:09:22;;;;;;;7.12;1.10;;;;;;;15.33;26.42;99847.08;1782289;80;25832;-59
2022/01/30 12:11:59;;;;;;;6.50;0.80;;;;;;;15.13;27.01;99836.02;1801240;78;27473;-59
2022/01/30 12:14:46;;;;;;;6.25;1.27;;;;;;;14.40;26.85;99824.44;1812617;78;25787;-58
2022/01/30 12:17:13;;;;;;;3.05;1.02;;;;;;;13.95;28.52;99812.67;1806981;78;25790;-59
2022/01/30 12:19:46;;;;;;;3.52;0.80;;;;;;;14.12;27.30;99803.92;1814398;78;25783;-59
2022/01/30 12:22:23;;;;;;;2.77;0.93;;;;;;;13.87;28.28;99793.33;1823050;78;26513;-59
2022/01/30 12:25:09;;;;;;;1.07;0.75;;;;;;;13.77;28.81;99796.79;1800583;78;27478;-59
2022/01/30 12:27:51;;;;;;;2.55;0.95;;;;;;;13.65;28.22;99792.32;1751930;78;25856;-59
2022/01/30 12:30:37;;;;;;;3.30;0.85;;;;;;;13.45;27.98;99794.14;1834247;78;25713;-59